Time;durP1;ratioP1;P1;durP2;ratioP2;P2;SDS_P1;SDS_P2;PMS_P1;PMS_P2;Temp;Humidity;BMP_temperature;BMP_pressure;BME280_temperature;BME280_humidity;BME280_pressure;Samples;Min_cycle;Max_cycle;Signal;HPM_P1;HPM_P2
2023/07/30 00:01:26;;;;;;;2.08;1.20;;;19.60;99.90;;;;;;7386510;19;20484;-79
2023/07/30 00:03:52;;;;;;;1.38;1.10;;;19.60;99.90;;;;;;7385786;19;20151;-78
2023/07/30 00:06:17;;;;;;;1.92;1.02;;;19.50;99.90;;;;;;7382216;19;20135;-76
2023/07/30 00:08:43;;;;;;;2.30;1.50;;;19.60;99.90;;;;;;7383887;19;20189;-77
2023/07/30 00:11:09;;;;;;;2.03;1.40;;;19.60;99.90;;;;;;7385186;19;20151;-77
2023/07/30 00:13:35;;;;;;;2.28;1.40;;;19.70;99.90;;;;;;7386363;19;20562;-76
2023/07/30 00:16:00;;;;;;;1.88;1.30;;;19.60;99.90;;;;;;7389824;19;20164;-77
2023/07/30 00:18:26;;;;;;;1.50;1.20;;;19.60;99.90;;;;;;7392706;19;20160;-79
2023/07/30 00:20:52;;;;;;;1.63;1.45;;;19.60;99.90;;;;;;7392246;19;20127;-79
2023/07/30 00:23:17;;;;;;;1.88;1.50;;;19.50;99.90;;;;;;7392376;19;20441;-78
2023/07/30 00:25:43;;;;;;;2.45;1.70;;;19.50;99.90;;;;;;7393505;19;20135;-77
2023/07/30 00:28:09;;;;;;;2.78;1.30;;;19.50;99.90;;;;;;7390745;19;20871;-78
2023/07/30 00:30:34;;;;;;;2.38;1.67;;;19.60;99.90;;;;;;7390823;19;20150;-78
2023/07/30 00:33:00;;;;;;;3.20;1.70;;;19.70;99.90;;;;;;7392790;19;20127;-77
2023/07/30 00:35:26;;;;;;;1.63;1.02;;;19.70;99.90;;;;;;7385714;19;20138;-76
2023/07/30 00:37:51;;;;;;;2.42;1.33;;;19.60;99.90;;;;;;7391993;19;20139;-76
2023/07/30 00:40:18;;;;;;;2.22;1.45;;;19.70;99.90;;;;;;7392346;19;20177;-78
2023/07/30 00:42:44;;;;;;;2.45;1.30;;;19.60;99.90;;;;;;7392990;19;20146;-77
2023/07/30 00:45:10;;;;;;;2.40;1.27;;;19.60;99.90;;;;;;7392882;19;20143;-78
2023/07/30 00:47:37;;;;;;;2.47;1.33;;;19.60;99.90;;;;;;7394383;19;20150;-79
2023/07/30 00:50:05;;;;;;;1.63;0.90;;;19.50;99.90;;;;;;7389578;19;20142;-78
2023/07/30 00:52:31;;;;;;;2.60;1.35;;;19.40;99.90;;;;;;7390763;19;20487;-79
2023/07/30 00:54:58;;;;;;;1.60;1.48;;;19.40;99.90;;;;;;7392072;19;20233;-77
2023/07/30 00:57:25;;;;;;;1.63;1.40;;;19.40;99.90;;;;;;7390461;19;20135;-80
2023/07/30 00:59:51;;;;;;;1.88;1.48;;;19.40;99.90;;;;;;7391437;19;20138;-79
2023/07/30 01:02:17;;;;;;;3.28;1.55;;;19.50;99.90;;;;;;7390476;19;20161;-79
2023/07/30 01:04:44;;;;;;;1.60;1.50;;;19.70;99.90;;;;;;7393762;19;20146;-79
2023/07/30 01:07:10;;;;;;;1.92;1.52;;;19.70;99.90;;;;;;7392172;19;20135;-80
2023/07/30 01:09:36;;;;;;;1.90;1.52;;;19.70;99.90;;;;;;7385555;19;20135;-79
2023/07/30 01:12:03;;;;;;;2.03;1.45;;;19.70;99.90;;;;;;7390985;19;20138;-77
2023/07/30 01:14:29;;;;;;;2.17;1.60;;;19.60;99.90;;;;;;7393731;19;20414;-79
2023/07/30 01:16:55;;;;;;;3.58;1.55;;;19.70;99.90;;;;;;7393223;19;20170;-79
2023/07/30 01:19:21;;;;;;;1.77;1.65;;;19.70;99.90;;;;;;7389630;19;20763;-80
2023/07/30 01:21:47;;;;;;;3.70;1.80;;;19.80;99.90;;;;;;7391479;19;20206;-79
2023/07/30 01:24:12;;;;;;;2.53;2.17;;;19.80;99.90;;;;;;7390972;19;20155;-80
2023/07/30 01:26:48;;;;;;;5.47;2.60;;;19.90;99.90;;;;;;7390582;19;20523;-79
2023/07/30 01:29:48;;;;;;;2.55;2.00;;;20.00;99.90;;;;;;7391126;19;20570;-81
2023/07/30 01:32:14;;;;;;;3.47;2.15;;;20.00;99.90;;;;;;7388702;19;20142;-78
2023/07/30 01:34:42;;;;;;;4.28;2.42;;;20.00;99.90;;;;;;7393088;19;20451;-81
2023/07/30 01:37:14;;;;;;;2.58;2.17;;;20.00;99.90;;;;;;7391519;19;20606;-80
2023/07/30 01:39:42;;;;;;;2.35;1.85;;;20.10;99.90;;;;;;7390511;19;20138;-79
2023/07/30 01:42:11;;;;;;;3.30;2.08;;;20.10;99.90;;;;;;7391288;19;20508;-79
2023/07/30 01:44:37;;;;;;;3.00;2.15;;;20.10;99.90;;;;;;7391591;19;20603;-80
2023/07/30 01:47:02;;;;;;;2.80;2.17;;;20.20;99.90;;;;;;7390275;19;20212;-81
2023/07/30 01:49:28;;;;;;;3.08;1.90;;;20.10;99.90;;;;;;7389492;19;20152;-80
2023/07/30 01:51:54;;;;;;;2.70;2.13;;;20.20;99.90;;;;;;7388825;19;20139;-80
2023/07/30 01:54:20;;;;;;;3.22;1.95;;;19.90;99.90;;;;;;7390996;19;20147;-81
2023/07/30 01:56:45;;;;;;;2.50;2.00;;;19.90;99.90;;;;;;7390269;19;20610;-82
2023/07/30 01:59:11;;;;;;;3.10;2.05;;;19.90;99.90;;;;;;7389407;19;20141;-82
2023/07/30 02:01:37;;;;;;;2.33;2.03;;;19.90;99.90;;;;;;7391183;19;20138;-82
2023/07/30 02:04:03;;;;;;;3.40;2.25;;;19.90;99.90;;;;;;7388488;19;20192;-81
2023/07/30 02:06:28;;;;;;;4.50;2.33;;;20.00;99.90;;;;;;7390614;19;20147;-80
2023/07/30 02:08:54;;;;;;;4.22;1.90;;;20.10;99.90;;;;;;7386691;19;20138;-81
2023/07/30 02:11:20;;;;;;;2.08;1.88;;;20.10;99.90;;;;;;7387895;19;20153;-80
2023/07/30 02:13:45;;;;;;;2.60;1.92;;;20.10;99.90;;;;;;7390764;19;20141;-81
2023/07/30 02:16:11;;;;;;;2.45;2.25;;;20.10;99.90;;;;;;7389771;19;20165;-82
2023/07/30 02:18:37;;;;;;;2.10;1.90;;;20.10;99.90;;;;;;7388805;19;20141;-80
2023/07/30 02:21:03;;;;;;;2.13;1.90;;;20.00;99.90;;;;;;7391507;19;20139;-80
2023/07/30 02:23:29;;;;;;;2.50;1.70;;;20.00;99.90;;;;;;7391906;19;20470;-81
2023/07/30 02:25:54;;;;;;;2.45;1.80;;;20.00;99.90;;;;;;7387247;19;20222;-81
2023/07/30 02:28:20;;;;;;;3.47;1.98;;;20.10;99.90;;;;;;7387873;19;20245;-79
2023/07/30 02:30:46;;;;;;;2.30;1.95;;;20.10;99.90;;;;;;7389080;19;20257;-81
2023/07/30 02:33:11;;;;;;;3.60;2.00;;;20.10;99.90;;;;;;7389001;19;20498;-80
2023/07/30 02:35:37;;;;;;;2.85;2.00;;;20.20;99.90;;;;;;7389208;19;20155;-80
2023/07/30 02:38:03;;;;;;;2.97;2.10;;;20.10;99.90;;;;;;7387407;19;20226;-80
2023/07/30 02:40:29;;;;;;;4.28;1.88;;;20.20;99.90;;;;;;7388931;19;20146;-80
2023/07/30 02:42:54;;;;;;;2.50;2.10;;;20.20;99.90;;;;;;7390501;19;20135;-81
2023/07/30 02:45:20;;;;;;;2.55;2.28;;;20.20;99.90;;;;;;7387345;19;20205;-79
2023/07/30 02:47:48;;;;;;;3.53;1.90;;;20.20;99.90;;;;;;7385519;19;20142;-81
2023/07/30 02:50:14;;;;;;;2.28;1.90;;;20.10;99.90;;;;;;7388554;19;20135;-81
2023/07/30 02:52:39;;;;;;;2.22;2.03;;;20.20;99.90;;;;;;7388951;19;20126;-80
2023/07/30 02:55:05;;;;;;;2.72;1.92;;;20.20;99.90;;;;;;7389355;19;20184;-81
2023/07/30 02:57:31;;;;;;;2.05;1.80;;;20.10;99.90;;;;;;7384905;19;20154;-79
2023/07/30 02:59:57;;;;;;;3.85;2.08;;;20.10;99.90;;;;;;7387973;19;20234;-79
2023/07/30 03:02:23;;;;;;;2.78;2.15;;;20.00;99.90;;;;;;7387707;19;20154;-80
2023/07/30 03:04:48;;;;;;;2.45;2.05;;;20.00;99.90;;;;;;7388166;19;20168;-80
2023/07/30 03:07:14;;;;;;;3.30;2.38;;;20.00;99.90;;;;;;7387042;19;20290;-80
2023/07/30 03:09:40;;;;;;;2.65;2.08;;;20.10;99.90;;;;;;7387975;19;20149;-80
2023/07/30 03:12:06;;;;;;;2.38;1.90;;;20.10;99.90;;;;;;7384792;19;20154;-79
2023/07/30 03:14:32;;;;;;;3.63;2.17;;;20.00;99.90;;;;;;7388868;19;20161;-81
2023/07/30 03:16:57;;;;;;;3.88;2.28;;;20.00;99.90;;;;;;7388734;19;20158;-81
2023/07/30 03:19:23;;;;;;;4.03;1.88;;;20.00;99.90;;;;;;7386958;19;20601;-81
2023/07/30 03:21:49;;;;;;;2.65;1.75;;;20.10;99.90;;;;;;7387451;19;20466;-80
2023/07/30 03:24:15;;;;;;;2.38;1.88;;;20.10;99.90;;;;;;7387196;19;20510;-79
2023/07/30 03:26:40;;;;;;;3.60;2.15;;;20.00;99.90;;;;;;7386941;19;20501;-81
2023/07/30 03:29:06;;;;;;;3.22;2.25;;;20.00;99.90;;;;;;7387740;19;20131;-81
2023/07/30 03:31:32;;;;;;;2.47;2.08;;;20.10;99.90;;;;;;7385913;19;20230;-81
2023/07/30 03:33:58;;;;;;;1.80;1.70;;;20.00;99.90;;;;;;7387974;19;20636;-79
2023/07/30 03:36:23;;;;;;;2.15;1.77;;;20.00;99.90;;;;;;7387443;19;20149;-82
2023/07/30 03:38:49;;;;;;;2.13;1.90;;;20.10;99.90;;;;;;7387221;19;20250;-81
2023/07/30 03:41:15;;;;;;;3.53;1.73;;;20.00;99.90;;;;;;7386321;19;20138;-80
2023/07/30 03:43:40;;;;;;;2.20;1.85;;;20.00;99.90;;;;;;7387004;19;20157;-80
2023/07/30 03:46:06;;;;;;;2.90;2.10;;;20.00;99.90;;;;;;7388269;19;20146;-81
2023/07/30 03:48:32;;;;;;;2.40;1.90;;;20.00;99.90;;;;;;7386491;19;20238;-80
2023/07/30 03:50:57;;;;;;;2.60;1.80;;;20.00;99.90;;;;;;7393059;19;20139;-80
2023/07/30 03:53:23;;;;;;;2.00;1.80;;;20.00;99.90;;;;;;7391461;19;20146;-79
2023/07/30 03:55:49;;;;;;;3.20;2.35;;;20.00;99.90;;;;;;7393870;19;20158;-80
2023/07/30 03:58:15;;;;;;;3.97;2.10;;;20.00;99.90;;;;;;7392840;19;20524;-81
2023/07/30 04:00:41;;;;;;;2.75;1.73;;;20.00;99.90;;;;;;7394729;19;20177;-80
2023/07/30 04:03:06;;;;;;;2.00;1.70;;;20.20;99.90;;;;;;7392581;19;20146;-79
2023/07/30 04:05:32;;;;;;;2.40;2.10;;;20.00;99.90;;;;;;7393550;19;20130;-79
2023/07/30 04:07:58;;;;;;;2.20;1.95;;;20.00;99.90;;;;;;7394209;19;20174;-80
2023/07/30 04:10:24;;;;;;;2.10;1.90;;;20.00;99.90;;;;;;7392025;19;20156;-80
2023/07/30 04:12:49;;;;;;;2.67;1.58;;;20.10;99.90;;;;;;7391886;19;20164;-77
2023/07/30 04:15:16;;;;;;;2.30;2.08;;;20.10;99.90;;;;;;7392665;19;20144;-78
2023/07/30 04:17:42;;;;;;;2.17;1.90;;;20.20;99.90;;;;;;7393632;19;20154;-79
2023/07/30 04:20:12;;;;;;;1.88;1.65;;;20.10;99.90;;;;;;7391845;19;20150;-77
2023/07/30 04:22:38;;;;;;;3.20;1.73;;;20.00;99.90;;;;;;7393627;19;20152;-80
2023/07/30 04:25:04;;;;;;;3.08;1.60;;;20.00;99.90;;;;;;7391613;19;20143;-79
2023/07/30 04:27:30;;;;;;;2.35;1.83;;;20.00;99.90;;;;;;7392417;19;20154;-78
2023/07/30 04:29:55;;;;;;;2.22;1.67;;;19.90;99.90;;;;;;7389757;19;20636;-78
2023/07/30 04:32:21;;;;;;;4.75;1.70;;;19.90;99.90;;;;;;7390458;19;20578;-79
2023/07/30 04:34:47;;;;;;;6.40;4.28;;;19.90;99.90;;;;;;7390925;19;20145;-81
2023/07/30 04:37:13;;;;;;;4.90;3.22;;;19.90;99.90;;;;;;7391958;19;20146;-80
2023/07/30 04:39:38;;;;;;;4.18;2.10;;;19.90;99.90;;;;;;7390234;19;20147;-80
2023/07/30 04:42:04;;;;;;;1.70;1.40;;;19.90;99.90;;;;;;7392219;19;20241;-78
2023/07/30 04:44:30;;;;;;;1.85;1.58;;;20.00;99.90;;;;;;7392880;19;20164;-81
2023/07/30 04:46:56;;;;;;;3.22;1.30;;;20.00;99.90;;;;;;7391620;19;20143;-80
2023/07/30 04:49:22;;;;;;;1.50;1.40;;;20.10;99.90;;;;;;7390462;19;20150;-76
2023/07/30 04:51:47;;;;;;;2.20;1.60;;;20.10;99.90;;;;;;7392351;19;20141;-82
2023/07/30 04:54:13;;;;;;;4.43;1.50;;;20.20;99.90;;;;;;7391488;19;20754;-81
2023/07/30 04:56:39;;;;;;;3.10;1.55;;;20.20;99.90;;;;;;7391311;19;20793;-80
2023/07/30 04:59:05;;;;;;;2.42;1.38;;;20.10;99.90;;;;;;7393391;19;20153;-82
2023/07/30 05:01:31;;;;;;;2.95;1.38;;;20.00;99.90;;;;;;7389869;19;20461;-83
2023/07/30 05:03:57;;;;;;;1.85;1.73;;;20.10;99.90;;;;;;7391278;19;20633;-81
2023/07/30 05:06:23;;;;;;;3.17;1.60;;;20.20;99.90;;;;;;7392331;19;20622;-81
2023/07/30 05:08:48;;;;;;;2.50;1.80;;;20.20;99.90;;;;;;7389462;19;20134;-81
2023/07/30 05:11:14;;;;;;;1.50;1.40;;;20.30;99.90;;;;;;7391381;19;20143;-81
2023/07/30 05:13:40;;;;;;;2.10;1.60;;;20.20;99.90;;;;;;7391780;19;20143;-81
2023/07/30 05:16:06;;;;;;;1.98;1.45;;;20.10;99.90;;;;;;7391410;19;20138;-79
2023/07/30 05:18:32;;;;;;;1.58;1.40;;;20.20;99.90;;;;;;7390682;19;20597;-81
2023/07/30 05:20:58;;;;;;;1.80;1.45;;;20.20;99.90;;;;;;7393201;19;20157;-80
2023/07/30 05:23:24;;;;;;;2.35;1.55;;;20.20;99.90;;;;;;7392691;19;20155;-84
2023/07/30 05:25:49;;;;;;;2.90;1.40;;;20.10;99.90;;;;;;7390760;19;20147;-81
2023/07/30 05:28:15;;;;;;;2.20;1.67;;;20.10;99.90;;;;;;7390623;19;20158;-82
2023/07/30 05:30:41;;;;;;;1.75;1.55;;;20.10;99.90;;;;;;7390594;19;20131;-81
2023/07/30 05:33:07;;;;;;;1.50;1.40;;;20.10;99.90;;;;;;7392403;19;20127;-81
2023/07/30 05:35:32;;;;;;;1.83;1.63;;;20.10;99.90;;;;;;7391016;19;20139;-80
2023/07/30 05:37:59;;;;;;;6.15;1.60;;;20.10;99.90;;;;;;7389997;19;20574;-81
2023/07/30 05:40:25;;;;;;;3.50;1.58;;;20.20;99.90;;;;;;7388784;19;20171;-81
2023/07/30 05:42:53;;;;;;;2.03;1.80;;;20.20;99.90;;;;;;7391699;19;20242;-80
2023/07/30 05:45:24;;;;;;;2.75;1.50;;;20.10;99.90;;;;;;7388445;19;20150;-79
2023/07/30 05:47:50;;;;;;;2.45;1.60;;;20.20;99.90;;;;;;7388845;19;20138;-76
2023/07/30 05:50:16;;;;;;;1.95;1.52;;;20.30;99.90;;;;;;7389619;19;20153;-80
2023/07/30 05:52:41;;;;;;;2.92;1.67;;;20.20;99.90;;;;;;7390723;19;20146;-79
2023/07/30 05:55:07;;;;;;;1.83;1.30;;;20.10;99.90;;;;;;7390287;19;20139;-80
2023/07/30 05:57:33;;;;;;;1.90;1.60;;;20.20;99.90;;;;;;7385774;19;20587;-77
2023/07/30 05:59:59;;;;;;;2.15;1.70;;;20.20;99.90;;;;;;7390095;19;20129;-79
2023/07/30 06:02:25;;;;;;;2.13;1.67;;;20.20;99.90;;;;;;7388004;19;20154;-78
2023/07/30 06:04:50;;;;;;;3.65;1.67;;;20.20;99.90;;;;;;7391136;19;20609;-82
2023/07/30 06:07:16;;;;;;;3.25;2.03;;;20.20;99.90;;;;;;7386782;19;20510;-80
2023/07/30 06:09:42;;;;;;;3.40;1.77;;;20.40;99.90;;;;;;7381887;19;20134;-80
2023/07/30 06:12:08;;;;;;;2.00;1.48;;;20.50;99.90;;;;;;7385105;19;20141;-80
2023/07/30 06:14:33;;;;;;;2.22;1.60;;;20.60;99.90;;;;;;7389584;19;20454;-80
2023/07/30 06:16:59;;;;;;;2.08;1.80;;;20.70;99.90;;;;;;7389329;19;20222;-80
2023/07/30 06:19:26;;;;;;;1.80;1.63;;;20.70;99.90;;;;;;7388624;19;20143;-81
2023/07/30 06:21:52;;;;;;;2.20;1.60;;;20.70;99.90;;;;;;7392664;19;20164;-81
2023/07/30 06:24:17;;;;;;;2.17;1.65;;;20.60;99.90;;;;;;7394724;19;20222;-81
2023/07/30 06:26:43;;;;;;;1.83;1.42;;;20.60;99.90;;;;;;7396606;19;20163;-81
2023/07/30 06:29:09;;;;;;;3.17;1.50;;;20.60;99.90;;;;;;7389514;19;20168;-82
2023/07/30 06:31:34;;;;;;;2.63;1.80;;;20.60;99.90;;;;;;7387517;19;20158;-82
2023/07/30 06:34:00;;;;;;;2.15;1.85;;;20.50;99.90;;;;;;7388657;19;20151;-81
2023/07/30 06:36:26;;;;;;;3.08;1.90;;;20.50;99.90;;;;;;7391809;19;20454;-82
2023/07/30 06:38:52;;;;;;;1.75;1.40;;;20.70;99.90;;;;;;7385992;19;21739;-82
2023/07/30 06:41:17;;;;;;;2.13;1.70;;;21.20;99.90;;;;;;7390655;19;20568;-84
2023/07/30 06:43:45;;;;;;;2.42;1.60;;;23.20;99.90;;;;;;7391104;19;20246;-84
2023/07/30 06:46:10;;;;;;;1.45;1.33;;;25.90;99.90;;;;;;7394571;19;20147;-82
2023/07/30 06:48:36;;;;;;;3.63;1.40;;;28.10;99.90;;;;;;7392666;19;20152;-85
2023/07/30 06:51:07;;;;;;;1.50;1.17;;;27.70;99.90;;;;;;7390664;19;20143;-86
2023/07/30 06:53:33;;;;;;;2.28;1.40;;;26.20;99.90;;;;;;7393742;19;20225;-86
2023/07/30 06:55:59;;;;;;;1.23;1.13;;;24.70;99.90;;;;;;7393579;19;20762;-86
2023/07/30 06:58:24;;;;;;;1.30;1.20;;;23.40;99.90;;;;;;7400658;19;20134;-87
2023/07/30 07:00:50;;;;;;;1.27;1.17;;;22.70;99.90;;;;;;7402072;19;20154;-86
2023/07/30 07:03:18;;;;;;;1.50;1.23;;;22.20;99.90;;;;;;7396989;19;20528;-86
2023/07/30 07:05:43;;;;;;;2.45;1.20;;;21.70;99.90;;;;;;7398593;19;20162;-88
2023/07/30 07:08:09;;;;;;;1.70;1.30;;;21.50;99.90;;;;;;7398597;19;20509;-87
2023/07/30 07:10:35;;;;;;;1.30;1.20;;;21.40;99.90;;;;;;7393547;19;20138;-89
2023/07/30 07:13:01;;;;;;;1.23;1.13;;;21.30;99.90;;;;;;7391933;19;20294;-85
2023/07/30 07:15:26;;;;;;;2.28;1.25;;;21.20;99.90;;;;;;7389947;19;20142;-90
2023/07/30 07:17:52;;;;;;;1.00;0.90;;;21.10;99.90;;;;;;7388896;19;20142;-88
2023/07/30 07:20:18;;;;;;;1.40;1.30;;;21.00;99.90;;;;;;7389368;19;20146;-90
2023/07/30 07:22:55;;;;;;;1.33;1.15;;;21.00;99.90;;;;;;7387006;19;20146;-87
2023/07/30 07:25:27;;;;;;;2.85;1.50;;;21.10;99.90;;;;;;7388455;19;20442;-85
2023/07/30 07:27:53;;;;;;;1.33;1.23;;;21.10;99.90;;;;;;7388336;19;20221;-85
2023/07/30 07:30:19;;;;;;;2.05;1.30;;;21.10;99.90;;;;;;7387800;19;20138;-85
2023/07/30 07:32:44;;;;;;;1.25;1.15;;;21.00;99.90;;;;;;7387310;19;20138;-87
2023/07/30 07:35:10;;;;;;;2.65;1.30;;;20.90;99.90;;;;;;7388126;19;20123;-86
2023/07/30 07:37:36;;;;;;;1.20;1.10;;;20.80;99.90;;;;;;7386799;19;20505;-83
2023/07/30 07:40:03;;;;;;;1.10;1.00;;;20.80;99.90;;;;;;7386975;19;20154;-86
2023/07/30 07:42:30;;;;;;;2.05;0.90;;;20.80;99.90;;;;;;7386427;19;20444;-82
2023/07/30 07:44:56;;;;;;;1.70;1.17;;;20.60;99.90;;;;;;7388297;19;20654;-80
2023/07/30 07:47:22;;;;;;;1.63;1.20;;;20.50;99.90;;;;;;7388330;19;20143;-79
2023/07/30 07:49:48;;;;;;;1.10;1.00;;;20.50;99.90;;;;;;7385035;19;20142;-79
2023/07/30 07:52:14;;;;;;;1.33;1.20;;;20.50;99.90;;;;;;7385577;19;20173;-82
2023/07/30 07:54:41;;;;;;;1.25;1.00;;;20.50;99.90;;;;;;7387216;19;20221;-85
2023/07/30 07:57:08;;;;;;;1.00;0.90;;;20.50;99.90;;;;;;7388737;19;20154;-83
2023/07/30 07:59:34;;;;;;;2.80;1.20;;;20.60;99.90;;;;;;7388590;19;20212;-82
2023/07/30 08:02:00;;;;;;;2.58;0.98;;;20.60;99.90;;;;;;7387757;19;20146;-83
2023/07/30 08:04:25;;;;;;;1.10;1.00;;;20.70;99.90;;;;;;7384850;19;20837;-84
2023/07/30 08:06:51;;;;;;;1.10;0.80;;;20.80;99.90;;;;;;7387166;19;20931;-89
2023/07/30 08:09:17;;;;;;;1.30;1.00;;;21.00;99.90;;;;;;7386633;19;20158;-82
2023/07/30 08:11:43;;;;;;;1.30;1.10;;;21.00;99.90;;;;;;7383082;19;20568;-81
2023/07/30 08:14:08;;;;;;;1.30;1.20;;;21.10;99.90;;;;;;7383630;19;20566;-81
2023/07/30 08:16:34;;;;;;;0.80;0.80;;;21.20;99.90;;;;;;7388587;19;20156;-81
2023/07/30 08:19:00;;;;;;;1.38;1.00;;;21.50;99.90;;;;;;7384024;19;20151;-83
2023/07/30 08:21:25;;;;;;;1.45;1.20;;;21.60;99.90;;;;;;7386747;19;20151;-84
2023/07/30 08:23:51;;;;;;;1.30;1.17;;;21.70;99.90;;;;;;7384915;19;20142;-85
2023/07/30 08:26:17;;;;;;;1.45;0.90;;;21.80;99.90;;;;;;7384983;19;20146;-81
2023/07/30 08:28:42;;;;;;;0.80;0.80;;;21.80;99.90;;;;;;7385124;19;20147;-82
2023/07/30 08:31:08;;;;;;;1.10;1.00;;;22.00;99.90;;;;;;7385729;19;20478;-84
2023/07/30 08:33:34;;;;;;;5.25;4.60;;;22.60;99.90;;;;;;7386716;19;20146;-82
2023/07/30 08:36:00;;;;;;;1.00;0.90;;;23.10;99.90;;;;;;7385380;19;20634;-84
2023/07/30 08:38:26;;;;;;;1.13;0.98;;;23.10;99.90;;;;;;7393609;19;20139;-83
2023/07/30 08:40:51;;;;;;;1.63;1.00;;;23.20;99.90;;;;;;7395543;19;20130;-85
2023/07/30 08:43:20;;;;;;;1.08;0.82;;;23.10;99.90;;;;;;7394956;19;20551;-83
2023/07/30 08:45:46;;;;;;;2.58;1.00;;;23.10;99.90;;;;;;7392541;19;20625;-80
2023/07/30 08:48:12;;;;;;;2.10;0.70;;;23.20;99.90;;;;;;7391676;19;20139;-85
2023/07/30 08:50:39;;;;;;;0.80;0.77;;;23.10;99.90;;;;;;7392197;19;20162;-81
2023/07/30 08:53:07;;;;;;;1.45;0.93;;;23.10;99.90;;;;;;7394087;19;20154;-82
2023/07/30 08:55:34;;;;;;;1.92;1.20;;;23.00;99.90;;;;;;7393859;19;20515;-83
2023/07/30 08:58:04;;;;;;;1.65;1.10;;;23.00;99.90;;;;;;7390883;19;20182;-89
2023/07/30 09:00:36;;;;;;;2.38;1.20;;;22.90;99.90;;;;;;7393506;19;20146;-82
2023/07/30 09:03:04;;;;;;;1.63;1.10;;;22.80;99.90;;;;;;7393016;19;20162;-81
2023/07/30 09:05:31;;;;;;;1.70;1.25;;;23.00;99.90;;;;;;7393212;19;20135;-86
2023/07/30 09:07:57;;;;;;;1.48;1.10;;;23.10;99.90;;;;;;7391883;19;20154;-81
2023/07/30 09:10:26;;;;;;;1.83;1.33;;;22.90;99.90;;;;;;7391677;19;20170;-81
2023/07/30 09:12:59;;;;;;;1.00;0.90;;;22.90;99.90;;;;;;7391987;19;20500;-82
2023/07/30 09:15:33;;;;;;;1.25;1.02;;;22.80;99.90;;;;;;7391064;19;20131;-85
2023/07/30 09:18:00;;;;;;;1.17;1.05;;;22.40;99.90;;;;;;7391222;19;20135;-81
2023/07/30 09:20:27;;;;;;;1.20;1.00;;;22.30;99.90;;;;;;7394253;19;20469;-84
2023/07/30 09:22:56;;;;;;;1.48;1.17;;;22.60;99.90;;;;;;7393161;19;20131;-84
2023/07/30 09:25:22;;;;;;;1.52;1.02;;;22.60;99.90;;;;;;7392351;19;20179;-87
2023/07/30 09:27:50;;;;;;;1.10;0.93;;;22.50;99.90;;;;;;7392252;19;20509;-81
2023/07/30 09:30:23;;;;;;;2.20;1.10;;;22.50;99.90;;;;;;7391637;19;20175;-82
2023/07/30 09:32:55;;;;;;;2.08;1.17;;;22.50;99.90;;;;;;7395164;19;20164;-81
2023/07/30 09:35:22;;;;;;;1.38;1.20;;;22.30;99.90;;;;;;7391620;19;20142;-80
2023/07/30 09:37:48;;;;;;;1.15;0.90;;;22.30;99.90;;;;;;7392414;19;20157;-78
2023/07/30 09:40:16;;;;;;;1.05;0.95;;;22.20;99.90;;;;;;7392123;19;20149;-86
2023/07/30 09:42:48;;;;;;;2.35;1.25;;;22.10;99.90;;;;;;7393477;19;20602;-88
2023/07/30 09:45:37;;;;;;;1.10;1.00;;;22.10;99.90;;;;;;7393004;19;20495;-86
2023/07/30 09:48:05;;;;;;;1.90;1.20;;;22.00;99.90;;;;;;7389148;19;20162;-84
2023/07/30 09:50:31;;;;;;;2.33;1.10;;;22.10;99.90;;;;;;7390607;19;20130;-83
2023/07/30 09:53:04;;;;;;;1.40;1.15;;;22.00;99.90;;;;;;7392519;19;20138;-82
2023/07/30 09:55:30;;;;;;;1.55;1.33;;;21.90;99.90;;;;;;7392828;19;20551;-81
2023/07/30 09:57:56;;;;;;;1.40;1.27;;;21.90;99.90;;;;;;7393101;19;20135;-79
2023/07/30 10:00:22;;;;;;;2.50;1.10;;;22.00;99.90;;;;;;7391398;19;20131;-81
2023/07/30 10:02:49;;;;;;;2.35;1.10;;;22.00;99.90;;;;;;7393243;19;20445;-83
2023/07/30 10:05:20;;;;;;;1.75;1.17;;;21.90;99.90;;;;;;7401503;19;20131;-84
2023/07/30 10:08:03;;;;;;;2.65;1.15;;;22.20;99.90;;;;;;7406269;19;20127;-84
2023/07/30 10:10:30;;;;;;;1.20;1.05;;;22.30;99.90;;;;;;7403710;19;20142;-78
2023/07/30 10:13:00;;;;;;;1.50;1.40;;;22.40;99.90;;;;;;7407028;19;20142;-86
2023/07/30 10:15:26;;;;;;;1.98;1.10;;;22.60;99.90;;;;;;7398726;19;20138;-86
2023/07/30 10:17:51;;;;;;;1.30;1.20;;;22.70;99.90;;;;;;7390524;19;20138;-86
2023/07/30 10:20:25;;;;;;;2.13;1.40;;;22.70;99.90;;;;;;7390551;19;20135;-82
2023/07/30 10:22:55;;;;;;;1.48;1.38;;;22.80;99.90;;;;;;7391537;19;20143;-87
2023/07/30 10:25:45;;;;;;;1.33;1.23;;;22.80;99.90;;;;;;7388822;19;20194;-79
2023/07/30 10:28:29;;;;;;;1.13;1.02;;;22.60;99.90;;;;;;7390837;19;20169;-87
2023/07/30 10:31:01;;;;;;;1.00;0.90;;;22.70;99.90;;;;;;7387179;19;20222;-87
2023/07/30 10:33:50;;;;;;;1.65;1.27;;;22.60;99.90;;;;;;7390470;19;20135;-85
2023/07/30 10:36:41;;;;;;;1.38;1.27;;;22.90;99.90;;;;;;7389151;19;20150;-83
2023/07/30 10:39:14;;;;;;;1.55;1.38;;;23.10;99.90;;;;;;7388391;19;20143;-86
2023/07/30 10:41:40;;;;;;;1.77;1.52;;;23.30;99.90;;;;;;7391968;19;20146;-83
2023/07/30 10:44:06;;;;;;;5.28;1.73;;;23.40;99.90;;;;;;7389672;19;20143;-85
2023/07/30 10:46:32;;;;;;;1.35;1.17;;;23.40;99.90;;;;;;7388723;19;20172;-87
2023/07/30 10:48:58;;;;;;;1.48;1.38;;;23.40;99.90;;;;;;7387647;19;20154;-84
2023/07/30 10:51:24;;;;;;;1.80;1.40;;;23.50;99.90;;;;;;7389899;19;20164;-85
2023/07/30 10:53:51;;;;;;;1.52;1.20;;;23.60;99.90;;;;;;7391124;19;20157;-85
2023/07/30 10:56:21;;;;;;;2.33;1.00;;;23.70;99.90;;;;;;7392455;19;20134;-85
2023/07/30 10:58:51;;;;;;;1.25;1.15;;;23.80;99.90;;;;;;7390108;19;20141;-85
2023/07/30 11:01:17;;;;;;;2.05;1.50;;;23.70;99.90;;;;;;7390307;19;20206;-86
2023/07/30 11:03:43;;;;;;;2.03;1.60;;;23.80;99.90;;;;;;7386625;19;20190;-86
2023/07/30 11:06:09;;;;;;;2.90;1.30;;;23.90;99.90;;;;;;7389530;19;20516;-83
2023/07/30 11:08:40;;;;;;;2.10;1.55;;;23.70;99.90;;;;;;7390856;19;20477;-84
2023/07/30 11:11:08;;;;;;;2.38;1.40;;;23.70;99.90;;;;;;7390035;19;20134;-82
2023/07/30 11:13:39;;;;;;;2.83;1.67;;;23.70;99.90;;;;;;7389256;19;20135;-82
2023/07/30 11:16:07;;;;;;;1.58;1.33;;;23.70;99.90;;;;;;7388995;19;20209;-82
2023/07/30 11:18:34;;;;;;;2.05;1.40;;;23.70;99.90;;;;;;7386103;19;20164;-83
2023/07/30 11:21:07;;;;;;;1.60;1.40;;;23.70;99.90;;;;;;7387654;19;20495;-83
2023/07/30 11:23:34;;;;;;;3.38;1.20;;;23.40;99.90;;;;;;7387579;19;20146;-85
2023/07/30 11:26:02;;;;;;;2.03;1.17;;;23.40;99.90;;;;;;7389276;19;20222;-82
2023/07/30 11:28:32;;;;;;;1.55;1.35;;;23.50;99.90;;;;;;7390428;19;20161;-84
2023/07/30 11:31:03;;;;;;;1.50;1.20;;;23.50;99.90;;;;;;7391818;19;20178;-80
2023/07/30 11:33:29;;;;;;;2.70;1.42;;;23.40;99.90;;;;;;7389102;19;20130;-85
2023/07/30 11:35:56;;;;;;;2.78;1.20;;;23.40;99.90;;;;;;7390005;19;20252;-85
2023/07/30 11:38:26;;;;;;;2.17;1.33;;;23.60;99.90;;;;;;7387940;19;20811;-84
2023/07/30 11:40:53;;;;;;;3.53;1.60;;;23.40;99.90;;;;;;7389488;19;20158;-81
2023/07/30 11:43:21;;;;;;;1.52;1.10;;;23.40;99.90;;;;;;7389805;19;20659;-85
2023/07/30 11:45:47;;;;;;;2.15;1.50;;;23.20;99.90;;;;;;7386874;19;20142;-84
2023/07/30 11:48:13;;;;;;;2.65;1.77;;;23.20;99.90;;;;;;7388566;19;20528;-83
2023/07/30 11:50:47;;;;;;;2.40;1.40;;;23.10;99.90;;;;;;7388746;19;20122;-84
2023/07/30 11:53:13;;;;;;;1.40;1.20;;;23.20;99.90;;;;;;7389241;19;20481;-84
2023/07/30 11:55:40;;;;;;;4.05;1.52;;;23.40;99.90;;;;;;7387071;19;20154;-83
2023/07/30 11:58:07;;;;;;;1.25;1.15;;;23.30;99.90;;;;;;7387104;19;20614;-75
2023/07/30 12:00:33;;;;;;;2.08;1.20;;;23.10;99.90;;;;;;7389155;19;20139;-82
2023/07/30 12:03:09;;;;;;;2.85;1.40;;;23.00;99.90;;;;;;7386351;19;20251;-83
2023/07/30 12:05:38;;;;;;;2.63;1.27;;;23.00;99.90;;;;;;7389259;19;20155;-82
2023/07/30 12:08:07;;;;;;;2.25;1.30;;;23.00;99.90;;;;;;7389980;19;20147;-85
2023/07/30 12:10:51;;;;;;;1.20;0.93;;;23.20;99.90;;;;;;7389350;19;20512;-83
2023/07/30 12:13:19;;;;;;;2.25;1.50;;;23.40;99.90;;;;;;7395871;19;20156;-87
2023/07/30 12:15:52;;;;;;;1.77;1.50;;;23.60;99.90;;;;;;7398080;19;20159;-84
2023/07/30 12:18:19;;;;;;;1.38;1.27;;;23.80;99.90;;;;;;7394806;19;20138;-86
2023/07/30 12:20:46;;;;;;;1.73;1.40;;;23.90;99.90;;;;;;7397134;19;20131;-84
2023/07/30 12:23:12;;;;;;;2.58;1.40;;;24.00;99.90;;;;;;7396245;19;20143;-85
2023/07/30 12:25:38;;;;;;;1.85;1.45;;;24.00;99.90;;;;;;7398269;19;20159;-85
2023/07/30 12:28:04;;;;;;;3.85;1.60;;;24.10;99.90;;;;;;7393959;19;20131;-84
2023/07/30 12:30:30;;;;;;;1.77;1.63;;;24.20;99.90;;;;;;7395260;19;20150;-83
2023/07/30 12:32:56;;;;;;;2.08;1.45;;;24.10;99.90;;;;;;7394813;19;20174;-83
2023/07/30 12:35:25;;;;;;;2.40;1.50;;;24.00;99.90;;;;;;7392571;19;20135;-85
2023/07/30 12:37:51;;;;;;;1.30;1.20;;;24.20;99.90;;;;;;7392317;19;20165;-79
2023/07/30 12:40:17;;;;;;;2.30;1.38;;;23.90;99.90;;;;;;7393987;19;20474;-82
2023/07/30 12:42:43;;;;;;;1.95;1.52;;;23.70;99.90;;;;;;7394015;19;20135;-79
2023/07/30 12:45:11;;;;;;;3.17;1.60;;;23.70;99.90;;;;;;7394918;19;21214;-84
2023/07/30 12:47:37;;;;;;;2.55;1.25;;;23.80;99.90;;;;;;7395949;19;20469;-83